Time;durP1;ratioP1;P1;durP2;ratioP2;P2;SDS_P1;SDS_P2;PMS_P1;PMS_P2;Temp;Humidity;BMP_temperature;BMP_pressure;BME280_temperature;BME280_humidity;BME280_pressure;Samples;Min_cycle;Max_cycle;Signal;HPM_P1;HPM_P2
2022/07/18 00:01:36;;;;;;;;;;;19.40;73.50;;;;;;5097306;28;20309;-65
2022/07/18 00:04:02;;;;;;;;;;;19.20;74.30;;;;;;5091761;28;20261;-65
2022/07/18 00:06:27;;;;;;;;;;;19.20;75.10;;;;;;5102629;28;19916;-66
2022/07/18 00:08:53;;;;;;;;;;;19.20;76.60;;;;;;5092538;28;19916;-66
2022/07/18 00:11:19;;;;;;;;;;;19.10;77.70;;;;;;5097049;28;19912;-66
2022/07/18 00:13:44;;;;;;;;;;;19.00;78.60;;;;;;5096740;28;19947;-65
2022/07/18 00:16:10;;;;;;;;;;;19.00;79.90;;;;;;5070472;28;19926;-65
2022/07/18 00:18:36;;;;;;;;;;;19.00;82.30;;;;;;5094783;28;20397;-65
2022/07/18 00:21:01;;;;;;;;;;;18.90;84.10;;;;;;5111242;28;19914;-65
2022/07/18 00:23:27;;;;;;;;;;;18.80;85.30;;;;;;5103009;28;20445;-66
2022/07/18 00:25:52;;;;;;;;;;;18.80;84.80;;;;;;5105096;28;19912;-66
2022/07/18 00:28:18;;;;;;;;;;;18.70;84.50;;;;;;5095313;28;19918;-65
2022/07/18 00:30:44;;;;;;;;;;;18.70;85.20;;;;;;5108276;28;19916;-65
2022/07/18 00:33:10;;;;;;;;;;;18.70;83.70;;;;;;5104279;28;19923;-66
2022/07/18 00:35:35;;;;;;;;;;;18.70;84.00;;;;;;5104239;28;19908;-65
2022/07/18 00:38:01;;;;;;;;;;;18.60;85.40;;;;;;5111838;28;19971;-66
2022/07/18 00:40:28;;;;;;;;;;;18.60;86.40;;;;;;5081135;28;20305;-65
2022/07/18 00:42:53;;;;;;;;;;;18.60;85.60;;;;;;5115876;28;20006;-65
2022/07/18 00:45:19;;;;;;;;;;;18.50;85.20;;;;;;5109800;28;20357;-65
2022/07/18 00:47:44;;;;;;;;;;;18.50;84.60;;;;;;5103013;28;19916;-65
2022/07/18 00:50:10;;;;;;;;;;;18.50;83.60;;;;;;5108347;28;19962;-66
2022/07/18 00:52:36;;;;;;;;;;;18.50;81.50;;;;;;5086969;28;19923;-66
2022/07/18 00:55:03;;;;;;;;;;;18.50;82.60;;;;;;5106525;28;20265;-66
2022/07/18 00:57:29;;;;;;;;;;;18.40;85.60;;;;;;5102364;28;20007;-65
2022/07/18 01:02:39;;;;;;;;;;;18.20;90.40;;;;;;5102295;28;20065;-66
2022/07/18 01:05:06;;;;;;;;;;;18.10;91.70;;;;;;5097636;28;20495;-65
2022/07/18 01:07:33;;;;;;;;;;;18.00;93.00;;;;;;5101037;28;19916;-66
2022/07/18 01:09:58;;;;;;;;;;;17.90;93.60;;;;;;5098707;28;19914;-66
2022/07/18 01:12:25;;;;;;;;;;;17.80;94.70;;;;;;5083926;28;20006;-66
2022/07/18 01:14:50;;;;;;;;;;;17.70;95.20;;;;;;5100916;28;19908;-66
2022/07/18 01:17:17;;;;;;;;;;;17.70;95.80;;;;;;5084211;28;20382;-67
2022/07/18 01:19:43;;;;;;;;;;;17.60;96.10;;;;;;5077039;28;19935;-66
2022/07/18 01:22:09;;;;;;;;;;;17.50;96.80;;;;;;5083359;28;20287;-66
2022/07/18 01:24:35;;;;;;;;;;;17.50;97.30;;;;;;5078339;28;19913;-65
2022/07/18 01:27:01;;;;;;;;;;;17.50;98.90;;;;;;5084227;28;19962;-65
2022/07/18 01:29:26;;;;;;;;;;;17.50;97.30;;;;;;5080511;28;19982;-66
2022/07/18 01:31:52;;;;;;;;;;;17.50;97.00;;;;;;5074424;28;19912;-65
2022/07/18 01:34:20;;;;;;;;;;;17.50;96.80;;;;;;5068077;28;19995;-66
2022/07/18 01:36:46;;;;;;;;;;;17.50;97.40;;;;;;5079055;28;19936;-66
2022/07/18 01:39:11;;;;;;;;;;;17.50;97.70;;;;;;5081188;28;19974;-66
2022/07/18 01:41:37;;;;;;;;;;;17.50;97.70;;;;;;5078128;28;19919;-66
2022/07/18 01:44:03;;;;;;;;;;;17.40;99.00;;;;;;5076015;28;19912;-65
2022/07/18 01:46:29;;;;;;;;;;;17.40;99.90;;;;;;5074746;28;20271;-65
2022/07/18 01:48:54;;;;;;;;;;;17.40;99.90;;;;;;5075355;28;20835;-65
2022/07/18 01:51:20;;;;;;;;;;;17.30;99.90;;;;;;5071192;28;19912;-66
2022/07/18 01:53:53;;;;;;;;;;;17.30;99.90;;;;;;5073601;28;19912;-67
2022/07/18 01:56:19;;;;;;;;;;;17.20;99.90;;;;;;5073771;28;19919;-65
2022/07/18 01:58:44;;;;;;;;;;;17.10;99.90;;;;;;5077006;28;19920;-65
2022/07/18 02:01:10;;;;;;;;;;;17.00;99.90;;;;;;5075793;28;19912;-66
2022/07/18 02:03:35;;;;;;;;;;;17.00;99.90;;;;;;5074038;28;19967;-66
2022/07/18 02:06:01;;;;;;;;;;;16.90;99.90;;;;;;5072023;28;19916;-66
2022/07/18 02:08:26;;;;;;;;;;;16.80;99.90;;;;;;5056346;28;19919;-65
2022/07/18 02:10:52;;;;;;;;;;;16.80;99.90;;;;;;5072328;28;19947;-64
2022/07/18 02:13:20;;;;;;;;;;;16.70;99.90;;;;;;5077712;28;20347;-66
2022/07/18 02:15:45;;;;;;;;;;;16.70;99.90;;;;;;5072714;28;20289;-66
2022/07/18 02:18:11;;;;;;;;;;;16.70;99.90;;;;;;5091440;28;19934;-66
2022/07/18 02:20:38;;;;;;;;;;;16.70;99.90;;;;;;5091844;28;19912;-65
2022/07/18 02:23:04;;;;;;;;;;;16.70;99.90;;;;;;5095085;28;19961;-67
2022/07/18 02:25:30;;;;;;;;;;;16.60;99.90;;;;;;5093228;28;19955;-66
2022/07/18 02:27:55;;;;;;;;;;;16.60;99.90;;;;;;5092091;28;19919;-66
2022/07/18 02:30:21;;;;;;;;;;;16.50;99.90;;;;;;5092730;28;20520;-65
2022/07/18 02:32:47;;;;;;;;;;;16.50;99.90;;;;;;5090769;28;19926;-65
2022/07/18 02:35:12;;;;;;;;;;;16.60;99.90;;;;;;5096980;28;19965;-66
2022/07/18 02:37:40;;;;;;;;;;;16.50;99.90;;;;;;5095745;28;20427;-66
2022/07/18 02:40:09;;;;;;;;;;;16.40;99.90;;;;;;5079391;28;19911;-66
2022/07/18 02:42:35;;;;;;;;;;;16.30;99.90;;;;;;5099249;28;19919;-66
2022/07/18 02:45:00;;;;;;;;;;;16.20;99.90;;;;;;5085761;28;19924;-65
2022/07/18 02:47:26;;;;;;;;;;;16.20;99.90;;;;;;5091736;28;19912;-67
2022/07/18 02:49:52;;;;;;;;;;;16.20;99.90;;;;;;5093667;28;19955;-65
2022/07/18 02:52:17;;;;;;;;;;;16.20;99.90;;;;;;5092564;28;19912;-66
2022/07/18 02:54:43;;;;;;;;;;;16.00;99.90;;;;;;5100747;28;19919;-66
2022/07/18 02:57:08;;;;;;;;;;;16.00;99.90;;;;;;5091611;28;20349;-66
2022/07/18 02:59:34;;;;;;;;;;;15.90;99.90;;;;;;5095110;28;19959;-66
2022/07/18 03:02:00;;;;;;;;;;;15.90;99.90;;;;;;5097456;28;20090;-66
2022/07/18 03:04:26;;;;;;;;;;;15.60;99.90;;;;;;5088975;28;19958;-66
2022/07/18 03:06:52;;;;;;;;;;;15.60;99.90;;;;;;5095660;28;20346;-66
2022/07/18 03:09:18;;;;;;;;;;;15.60;99.90;;;;;;5093003;28;19916;-66
2022/07/18 03:11:44;;;;;;;;;;;15.60;99.90;;;;;;5094385;28;19994;-65
2022/07/18 03:14:09;;;;;;;;;;;15.50;99.90;;;;;;5095542;28;20014;-66
2022/07/18 03:16:35;;;;;;;;;;;15.50;99.90;;;;;;5078783;28;20076;-67
2022/07/18 03:19:01;;;;;;;;;;;15.40;99.90;;;;;;5094322;28;19973;-66
2022/07/18 03:21:26;;;;;;;;;;;15.40;99.90;;;;;;5096834;28;20378;-66
2022/07/18 03:23:52;;;;;;;;;;;15.30;99.90;;;;;;5089345;28;19913;-65
2022/07/18 03:26:18;;;;;;;;;;;15.30;99.90;;;;;;5096389;28;20316;-65
2022/07/18 03:28:43;;;;;;;;;;;15.30;99.90;;;;;;5098212;28;19918;-66
2022/07/18 03:31:09;;;;;;;;;;;15.30;99.90;;;;;;5094202;28;19913;-66
2022/07/18 03:33:34;;;;;;;;;;;15.20;99.90;;;;;;5091959;28;20348;-66
2022/07/18 03:36:00;;;;;;;;;;;15.20;99.90;;;;;;5096128;28;19919;-66
2022/07/18 03:38:25;;;;;;;;;;;15.30;99.90;;;;;;5099016;28;19978;-66
2022/07/18 03:40:51;;;;;;;;;;;15.40;99.90;;;;;;5098855;28;19919;-66
2022/07/18 03:43:16;;;;;;;;;;;15.40;99.90;;;;;;5098148;28;19958;-66
2022/07/18 03:45:42;;;;;;;;;;;15.50;99.90;;;;;;5091955;28;19919;-67
2022/07/18 03:48:08;;;;;;;;;;;15.40;99.90;;;;;;5091238;28;19938;-66
2022/07/18 03:50:33;;;;;;;;;;;15.30;99.90;;;;;;5094893;28;19912;-65
2022/07/18 03:52:59;;;;;;;;;;;15.30;99.90;;;;;;5095085;28;19965;-66
2022/07/18 03:55:25;;;;;;;;;;;15.30;99.90;;;;;;5076163;28;19920;-66
2022/07/18 03:57:50;;;;;;;;;;;15.20;99.90;;;;;;5095231;28;19920;-66
2022/07/18 04:00:16;;;;;;;;;;;15.10;99.90;;;;;;5088630;28;20447;-66
2022/07/18 04:02:42;;;;;;;;;;;15.10;99.90;;;;;;5095013;28;19924;-66
2022/07/18 04:05:08;;;;;;;;;;;15.00;99.90;;;;;;5097261;28;19927;-66
2022/07/18 04:07:34;;;;;;;;;;;14.90;99.90;;;;;;5098957;28;22212;-66
2022/07/18 04:10:00;;;;;;;;;;;14.90;99.90;;;;;;5092723;28;19920;-66
2022/07/18 04:12:25;;;;;;;;;;;15.00;99.90;;;;;;5093801;28;20320;-66
2022/07/18 04:14:51;;;;;;;;;;;15.00;99.90;;;;;;5099003;28;19918;-66
2022/07/18 04:17:16;;;;;;;;;;;15.20;99.90;;;;;;5094055;28;20360;-66
2022/07/18 04:19:42;;;;;;;;;;;15.20;99.90;;;;;;5093537;28;19920;-66
2022/07/18 04:22:08;;;;;;;;;;;15.10;99.90;;;;;;5080547;28;19912;-66
2022/07/18 04:24:33;;;;;;;;;;;15.10;99.90;;;;;;5091359;28;19920;-66
2022/07/18 04:26:59;;;;;;;;;;;15.10;99.90;;;;;;5088688;28;19920;-66
2022/07/18 04:29:24;;;;;;;;;;;15.00;99.90;;;;;;5097785;28;19959;-66
2022/07/18 04:31:50;;;;;;;;;;;14.90;99.90;;;;;;5095423;28;19919;-66
2022/07/18 04:34:16;;;;;;;;;;;14.80;99.90;;;;;;5094561;28;19937;-66
2022/07/18 04:36:41;;;;;;;;;;;14.80;99.90;;;;;;5092397;28;20274;-65
2022/07/18 04:39:07;;;;;;;;;;;14.90;99.90;;;;;;5090908;28;20359;-66
2022/07/18 04:41:32;;;;;;;;;;;14.80;99.90;;;;;;5101576;28;19912;-66
2022/07/18 04:43:58;;;;;;;;;;;14.80;99.90;;;;;;5091173;28;20281;-66
2022/07/18 04:46:23;;;;;;;;;;;14.80;99.90;;;;;;5098662;28;19994;-66
2022/07/18 04:48:49;;;;;;;;;;;14.80;99.90;;;;;;5094180;28;19918;-66
2022/07/18 04:51:15;;;;;;;;;;;14.90;99.90;;;;;;5079454;28;19955;-66
2022/07/18 04:53:40;;;;;;;;;;;15.00;99.90;;;;;;5096032;28;19912;-67
2022/07/18 04:56:06;;;;;;;;;;;15.00;99.90;;;;;;5091558;28;19920;-66
2022/07/18 04:58:31;;;;;;;;;;;15.00;99.90;;;;;;5089889;28;20022;-66
2022/07/18 05:01:00;;;;;;;;;;;15.20;99.90;;;;;;5093271;28;19959;-66
2022/07/18 05:03:25;;;;;;;;;;;15.20;99.90;;;;;;5076596;28;20385;-67
2022/07/18 05:05:51;;;;;;;;;;;15.20;99.90;;;;;;5096314;28;19911;-66
2022/07/18 05:08:17;;;;;;;;;;;15.30;99.90;;;;;;5092868;28;19915;-66
2022/07/18 05:10:42;;;;;;;;;;;15.30;99.90;;;;;;5097718;28;22344;-66
2022/07/18 05:13:08;;;;;;;;;;;15.30;99.90;;;;;;5090172;28;19969;-66
2022/07/18 05:15:33;;;;;;;;;;;15.30;99.90;;;;;;5098643;28;19982;-65
2022/07/18 05:17:59;;;;;;;;;;;15.30;99.90;;;;;;5103381;28;19928;-66
2022/07/18 05:20:25;;;;;;;;;;;15.30;99.90;;;;;;5094972;28;20278;-66
2022/07/18 05:22:51;;;;;;;;;;;15.20;99.90;;;;;;5077299;28;20322;-66
2022/07/18 05:25:17;;;;;;;;;;;15.20;99.90;;;;;;5098447;28;20002;-66
2022/07/18 05:27:43;;;;;;;;;;;15.20;99.90;;;;;;5101291;28;20003;-66
2022/07/18 05:30:10;;;;;;;;;;;15.30;99.90;;;;;;5079735;28;20290;-65
2022/07/18 05:32:36;;;;;;;;;;;15.30;99.90;;;;;;5098900;28;19934;-65
2022/07/18 05:35:02;;;;;;;;;;;15.30;99.90;;;;;;5094895;28;19916;-66
2022/07/18 05:37:28;;;;;;;;;;;15.30;99.90;;;;;;5096711;28;19955;-65
2022/07/18 05:39:53;;;;;;;;;;;15.30;99.90;;;;;;5100981;28;19912;-66
2022/07/18 05:42:22;;;;;;;;;;;15.40;99.90;;;;;;5101244;28;20277;-66
2022/07/18 05:44:47;;;;;;;;;;;15.50;99.90;;;;;;5095421;28;19912;-65
2022/07/18 05:47:13;;;;;;;;;;;15.60;99.90;;;;;;5101205;28;19912;-69
2022/07/18 05:49:39;;;;;;;;;;;15.70;99.90;;;;;;5098901;28;19920;-65
2022/07/18 05:52:04;;;;;;;;;;;15.70;99.90;;;;;;5063932;28;20007;-66
2022/07/18 05:54:30;;;;;;;;;;;15.80;99.90;;;;;;5099986;28;19912;-66
2022/07/18 05:56:55;;;;;;;;;;;15.80;99.90;;;;;;5096159;28;19912;-65
2022/07/18 05:59:21;;;;;;;;;;;15.90;99.90;;;;;;5099115;28;19964;-66
2022/07/18 06:01:47;;;;;;;;;;;15.90;99.90;;;;;;5096173;28;20066;-66
2022/07/18 06:04:13;;;;;;;;;;;16.00;99.90;;;;;;5090853;28;21162;-65
2022/07/18 06:06:39;;;;;;;;;;;16.20;99.90;;;;;;5098604;28;19919;-66
2022/07/18 06:09:04;;;;;;;;;;;16.20;99.90;;;;;;5092713;28;19912;-66
2022/07/18 06:11:30;;;;;;;;;;;16.30;99.90;;;;;;5093097;28;19927;-66
2022/07/18 06:13:56;;;;;;;;;;;16.30;99.90;;;;;;5089807;28;20408;-66
2022/07/18 06:16:22;;;;;;;;;;;16.40;99.90;;;;;;5075420;28;19912;-66
2022/07/18 06:18:47;;;;;;;;;;;16.50;99.90;;;;;;5091487;28;19926;-66
2022/07/18 06:21:13;;;;;;;;;;;16.60;99.90;;;;;;5094199;28;20424;-66
2022/07/18 06:23:38;;;;;;;;;;;16.70;99.90;;;;;;5095814;28;19991;-66
2022/07/18 06:26:04;;;;;;;;;;;16.70;99.90;;;;;;5089676;28;20002;-66
2022/07/18 06:28:30;;;;;;;;;;;16.80;99.90;;;;;;5093438;28;20381;-66
2022/07/18 06:30:55;;;;;;;;;;;17.00;99.90;;;;;;5091821;28;20076;-65
2022/07/18 06:33:21;;;;;;;;;;;17.20;99.90;;;;;;5097284;28;20052;-66
2022/07/18 06:35:47;;;;;;;;;;;17.30;99.90;;;;;;5095680;28;19920;-66
2022/07/18 06:38:13;;;;;;;;;;;17.30;99.90;;;;;;5076207;28;19920;-66
2022/07/18 06:40:39;;;;;;;;;;;17.50;99.90;;;;;;5097976;28;20362;-66
2022/07/18 06:43:06;;;;;;;;;;;17.70;99.90;;;;;;5091653;28;19912;-66
2022/07/18 06:45:31;;;;;;;;;;;17.80;99.90;;;;;;5097089;28;20361;-67
2022/07/18 06:47:57;;;;;;;;;;;18.00;99.90;;;;;;5094737;28;20049;-65
2022/07/18 06:50:23;;;;;;;;;;;18.20;99.90;;;;;;5095256;28;20384;-66
2022/07/18 06:52:48;;;;;;;;;;;18.40;99.90;;;;;;5092529;28;19919;-66
2022/07/18 06:55:14;;;;;;;;;;;18.60;99.90;;;;;;5094994;28;20034;-66
2022/07/18 06:57:40;;;;;;;;;;;18.60;99.90;;;;;;5093145;28;20323;-66
2022/07/18 07:00:08;;;;;;;;;;;18.80;99.90;;;;;;5099549;28;19912;-66
2022/07/18 07:02:39;;;;;;;;;;;19.00;99.70;;;;;;5100164;28;19912;-66
2022/07/18 07:05:04;;;;;;;;;;;19.20;98.30;;;;;;5091882;28;19912;-66
2022/07/18 07:07:30;;;;;;;;;;;19.30;97.60;;;;;;5094614;28;20007;-67
2022/07/18 07:09:55;;;;;;;;;;;19.40;98.10;;;;;;5094518;28;19938;-66
2022/07/18 07:12:21;;;;;;;;;;;19.50;97.20;;;;;;5088128;28;19971;-66
2022/07/18 07:14:47;;;;;;;;;;;19.60;97.70;;;;;;5102517;28;19993;-65
2022/07/18 07:17:12;;;;;;;;;;;19.80;96.00;;;;;;5090855;28;20382;-65
2022/07/18 07:19:38;;;;;;;;;;;20.00;95.80;;;;;;5091775;28;20007;-65
2022/07/18 07:22:03;;;;;;;;;;;20.10;96.50;;;;;;5089602;28;19963;-63
2022/07/18 07:24:29;;;;;;;;;;;20.20;95.70;;;;;;5090881;28;19935;-65
2022/07/18 07:26:54;;;;;;;;;;;20.40;95.30;;;;;;5105788;28;19906;-64
2022/07/18 07:29:20;;;;;;;;;;;20.50;95.70;;;;;;5089626;28;19949;-65
2022/07/18 07:31:46;;;;;;;;;;;20.60;95.30;;;;;;5105955;28;19912;-63
2022/07/18 07:34:11;;;;;;;;;;;20.80;94.40;;;;;;5102002;28;19941;-64
2022/07/18 07:36:37;;;;;;;;;;;21.00;93.30;;;;;;5101635;28;19919;-65
2022/07/18 07:39:02;;;;;;;;;;;21.20;93.30;;;;;;5074429;28;19916;-63
2022/07/18 07:41:28;;;;;;;;;;;21.30;92.30;;;;;;5092800;28;19916;-66
2022/07/18 07:43:54;;;;;;;;;;;21.50;92.10;;;;;;5086069;28;20011;-63
2022/07/18 07:46:19;;;;;;;;;;;21.60;92.30;;;;;;5096932;28;19926;-64
2022/07/18 07:48:47;;;;;;;;;;;21.80;91.30;;;;;;5105168;28;20008;-64
2022/07/18 07:51:13;;;;;;;;;;;21.90;91.10;;;;;;5085394;28;19918;-66
2022/07/18 07:53:39;;;;;;;;;;;22.20;90.60;;;;;;5071639;28;22591;-63
2022/07/18 07:56:05;;;;;;;;;;;22.30;90.20;;;;;;5094685;28;19919;-65
2022/07/18 07:58:30;;;;;;;;;;;22.40;87.80;;;;;;5103074;28;19967;-66
2022/07/18 08:00:56;;;;;;;;;;;22.60;87.10;;;;;;5085284;28;19916;-66
2022/07/18 08:03:21;;;;;;;;;;;22.70;87.30;;;;;;5095991;28;20434;-64
2022/07/18 08:05:48;;;;;;;;;;;22.90;85.30;;;;;;5094304;28;19939;-65
2022/07/18 08:08:14;;;;;;;;;;;23.00;84.80;;;;;;5080516;28;19973;-65
2022/07/18 08:10:40;;;;;;;;;;;23.10;85.40;;;;;;5088643;28;19927;-65
2022/07/18 08:13:05;;;;;;;;;;;23.30;84.00;;;;;;5075914;28;19916;-66
2022/07/18 08:15:31;;;;;;;;;;;23.40;83.30;;;;;;5103649;28;20429;-65
2022/07/18 08:17:56;;;;;;;;;;;23.50;82.70;;;;;;5095135;28;21173;-65
2022/07/18 08:20:22;;;;;;;;;;;23.70;82.10;;;;;;5100410;28;19912;-65
2022/07/18 08:22:52;;;;;;;;;;;23.80;81.10;;;;;;5091240;28;19912;-65
2022/07/18 08:25:18;;;;;;;;;;;24.00;80.60;;;;;;5108137;28;19959;-65
2022/07/18 08:27:44;;;;;;;;;;;24.20;79.60;;;;;;5083775;28;19943;-65
2022/07/18 08:30:09;;;;;;;;;;;24.40;79.00;;;;;;5095767;28;19966;-65
2022/07/18 08:32:35;;;;;;;;;;;24.80;77.30;;;;;;5091102;28;19924;-66
2022/07/18 08:35:00;;;;;;;;;;;25.00;75.20;;;;;;5089888;28;19919;-65
2022/07/18 08:37:26;;;;;;;;;;;25.10;74.20;;;;;;5096314;28;19928;-65
2022/07/18 08:39:51;;;;;;;;;;;25.20;74.10;;;;;;5095057;28;19983;-64
2022/07/18 08:42:18;;;;;;;;;;;25.40;73.90;;;;;;5104260;28;19951;-64
2022/07/18 08:44:44;;;;;;;;;;;25.80;73.30;;;;;;5116252;28;19919;-64
2022/07/18 08:47:10;;;;;;;;;;;26.20;71.50;;;;;;5104462;28;19912;-64
2022/07/18 08:49:36;;;;;;;;;;;26.30;69.70;;;;;;5092137;28;19964;-64
2022/07/18 08:52:02;;;;;;;;;;;26.60;68.80;;;;;;5112419;28;20007;-63
2022/07/18 08:54:28;;;;;;;;;;;26.80;67.80;;;;;;5119104;28;19919;-64
2022/07/18 08:56:53;;;;;;;;;;;27.10;67.10;;;;;;5111603;28;19923;-64
2022/07/18 08:59:19;;;;;;;;;;;27.40;67.00;;;;;;5102015;28;19996;-65
2022/07/18 09:01:44;;;;;;;;;;;27.60;66.40;;;;;;5101313;28;19919;-64
2022/07/18 09:04:17;;;;;;;;;;;27.70;65.40;;;;;;5109572;28;19913;-64
2022/07/18 09:06:43;;;;;;;;;;;28.00;64.30;;;;;;5098067;28;19920;-65
2022/07/18 09:09:10;;;;;;;;;;;28.30;62.90;;;;;;5110696;28;19983;-64
2022/07/18 09:11:36;;;;;;;;;;;28.30;61.80;;;;;;5086079;28;20422;-65
2022/07/18 09:14:01;;;;;;;;;;;28.40;61.70;;;;;;5098042;28;19991;-65
2022/07/18 09:16:27;;;;;;;;;;;28.40;61.60;;;;;;5102418;28;19912;-65
2022/07/18 09:18:53;;;;;;;;;;;28.30;60.60;;;;;;5097155;28;19940;-63
2022/07/18 09:21:20;;;;;;;;;;;28.40;61.80;;;;;;5084752;28;19918;-64
2022/07/18 09:23:48;;;;;;;;;;;28.40;62.00;;;;;;5112895;28;19916;-64
2022/07/18 09:26:33;;;;;;;;;;;28.30;62.70;;;;;;5113996;28;19916;-64
2022/07/18 09:28:58;;;;;;;;;;;28.30;60.90;;;;;;5116320;28;19912;-65
2022/07/18 09:31:27;;;;;;;;;;;28.40;61.50;;;;;;5113125;28;19918;-65
2022/07/18 09:33:57;;;;;;;;;;;28.50;61.30;;;;;;5112972;28;19975;-64
2022/07/18 09:36:23;;;;;;;;;;;28.40;60.60;;;;;;5103820;28;19920;-64
2022/07/18 09:38:49;;;;;;;;;;;28.40;61.20;;;;;;5098637;28;19931;-65
2022/07/18 09:41:15;;;;;;;;;;;28.40;61.00;;;;;;5108676;28;20266;-66
2022/07/18 09:43:40;;;;;;;;;;;28.60;60.50;;;;;;5112150;28;19913;-64
2022/07/18 09:46:06;;;;;;;;;;;28.60;59.50;;;;;;5103558;28;19912;-65
2022/07/18 09:48:32;;;;;;;;;;;28.50;60.20;;;;;;5110973;28;19995;-64
2022/07/18 09:51:00;;;;;;;;;;;28.70;59.40;;;;;;5098879;28;19973;-65
2022/07/18 09:53:27;;;;;;;;;;;28.60;59.70;;;;;;5094539;28;19916;-65
2022/07/18 09:55:53;;;;;;;;;;;28.70;59.20;;;;;;5105328;28;20358;-64
2022/07/18 09:58:23;;;;;;;;;;;28.70;59.70;;;;;;5102711;28;19942;-65
2022/07/18 10:00:49;;;;;;;;;;;29.00;59.40;;;;;;5099462;28;19940;-65
2022/07/18 10:03:15;;;;;;;;;;;29.20;58.20;;;;;;5098414;28;19920;-64
2022/07/18 10:05:41;;;;;;;;;;;29.30;58.90;;;;;;5102683;28;19992;-64
2022/07/18 10:08:11;;;;;;;;;;;29.30;58.00;;;;;;5105606;28;19919;-65
2022/07/18 10:10:38;;;;;;;;;;;29.50;57.10;;;;;;5107075;28;20343;-64
2022/07/18 10:13:04;;;;;;;;;;;29.60;57.40;;;;;;5114124;28;19915;-64
2022/07/18 10:15:30;;;;;;;;;;;29.70;57.40;;;;;;5110563;28;19912;-64
2022/07/18 10:17:56;;;;;;;;;;;30.00;56.50;;;;;;5112403;28;19920;-64
2022/07/18 10:20:26;;;;;;;;;;;30.00;56.60;;;;;;5117941;28;19934;-63
2022/07/18 10:22:54;;;;;;;;;;;30.00;55.70;;;;;;5096610;28;19912;-65
2022/07/18 10:25:21;;;;;;;;;;;29.90;55.40;;;;;;5105263;28;20413;-65
2022/07/18 10:27:48;;;;;;;;;;;29.80;57.40;;;;;;5102266;28;19927;-64
2022/07/18 10:30:14;;;;;;;;;;;30.10;57.20;;;;;;5099829;28;19916;-64
2022/07/18 10:32:40;;;;;;;;;;;30.30;55.30;;;;;;5099651;28;19912;-65
2022/07/18 10:35:10;;;;;;;;;;;30.40;55.50;;;;;;5099282;28;20367;-65
2022/07/18 10:37:36;;;;;;;;;;;30.60;54.90;;;;;;5098940;28;20027;-65
2022/07/18 10:40:21;;;;;;;;;;;30.60;54.50;;;;;;5099542;28;20357;-64
2022/07/18 10:43:06;;;;;;;;;;;30.70;52.70;;;;;;5096557;28;19954;-65
2022/07/18 10:45:58;;;;;;;;;;;30.70;46.70;;;;;;5104914;28;19935;-65
2022/07/18 10:48:36;;;;;;;;;;;30.90;46.50;;;;;;5104804;28;19912;-64
2022/07/18 10:51:11;;;;;;;;;;;31.10;45.00;;;;;;5104045;28;20312;-65
2022/07/18 10:54:05;;;;;;;;;;;31.00;45.30;;;;;;5106576;28;19919;-65
2022/07/18 10:56:36;;;;;;;;;;;31.20;45.20;;;;;;5105782;28;20306;-65
2022/07/18 10:59:24;;;;;;;;;;;31.20;44.50;;;;;;5108909;28;20012;-65
2022/07/18 11:01:53;;;;;;;;;;;31.30;44.00;;;;;;5104585;28;19920;-65
2022/07/18 11:04:26;;;;;;;;;;;31.50;43.40;;;;;;5104050;28;19935;-64
2022/07/18 11:07:03;;;;;;;;;;;31.40;44.00;;;;;;5098479;28;19912;-65
2022/07/18 11:09:36;;;;;;;;;;;31.80;43.40;;;;;;5097149;28;20567;-65
2022/07/18 11:12:20;;;;;;;;;;;31.90;42.80;;;;;;5105448;28;20251;-66
2022/07/18 11:15:04;;;;;;;;;;;31.80;43.10;;;;;;5090640;28;19919;-65
2022/07/18 11:17:48;;;;;;;;;;;31.70;43.50;;;;;;5111553;28;19946;-64
2022/07/18 11:20:23;;;;;;;;;;;31.80;43.40;;;;;;5096734;28;19967;-65
2022/07/18 11:22:49;;;;;;;;;;;32.00;42.80;;;;;;5095673;28;20411;-65
2022/07/18 11:25:16;;;;;;;;;;;32.10;42.00;;;;;;5101164;28;19933;-65
2022/07/18 11:27:42;;;;;;;;;;;32.20;41.80;;;;;;5075684;28;20385;-66
2022/07/18 11:30:08;;;;;;;;;;;32.40;41.70;;;;;;5108221;28;19912;-64
2022/07/18 11:32:33;;;;;;;;;;;32.60;39.20;;;;;;5102972;28;19916;-64
2022/07/18 11:35:00;;;;;;;;;;;32.50;40.10;;;;;;5094862;28;19938;-65
2022/07/18 11:37:25;;;;;;;;;;;32.60;40.40;;;;;;5101798;28;19934;-64
2022/07/18 11:39:51;;;;;;;;;;;32.60;40.30;;;;;;5111623;28;19916;-64
2022/07/18 11:42:18;;;;;;;;;;;32.70;39.50;;;;;;5107005;28;19935;-65
2022/07/18 11:44:44;;;;;;;;;;;32.90;39.50;;;;;;5097383;28;20246;-64
2022/07/18 11:47:12;;;;;;;;;;;32.90;39.10;;;;;;5100061;28;19912;-65
2022/07/18 11:49:38;;;;;;;;;;;32.80;39.40;;;;;;5110599;28;19955;-65
2022/07/18 11:52:04;;;;;;;;;;;32.80;39.40;;;;;;5102427;28;19957;-64
2022/07/18 11:54:30;;;;;;;;;;;32.70;38.90;;;;;;5088598;28;19969;-65
2022/07/18 11:56:55;;;;;;;;;;;32.70;38.90;;;;;;5091463;28;19916;-65
2022/07/18 11:59:22;;;;;;;;;;;32.90;39.50;;;;;;5098987;28;19916;-66
2022/07/18 12:01:56;;;;;;;;;;;32.80;39.10;;;;;;5097408;28;19970;-65
2022/07/18 12:04:23;;;;;;;;;;;32.70;40.60;;;;;;5097463;28;19981;-65
2022/07/18 12:07:07;;;;;;;;;;;32.90;39.70;;;;;;5086033;28;20378;-65
2022/07/18 12:09:33;;;;;;;;;;;32.80;40.30;;;;;;5094777;28;19928;-64
2022/07/18 12:12:07;;;;;;;;;;;32.60;41.20;;;;;;5096220;28;19979;-64
2022/07/18 12:14:32;;;;;;;;;;;32.80;40.80;;;;;;5087001;28;19912;-65
2022/07/18 12:16:58;;;;;;;;;;;33.10;40.10;;;;;;5105158;28;19964;-64
2022/07/18 12:19:32;;;;;;;;;;;33.10;40.10;;;;;;5092336;28;19916;-65
2022/07/18 12:22:04;;;;;;;;;;;33.30;40.30;;;;;;5093295;28;19986;-64
2022/07/18 12:24:30;;;;;;;;;;;33.20;39.90;;;;;;5096219;28;20319;-65
2022/07/18 12:27:08;;;;;;;;;;;33.30;39.90;;;;;;5096704;28;19919;-66
2022/07/18 12:29:52;;;;;;;;;;;33.30;40.60;;;;;;5093485;28;19912;-65
2022/07/18 12:32:18;;;;;;;;;;;33.00;38.90;;;;;;5094593;28;19923;-64
2022/07/18 12:34:54;;;;;;;;;;;32.70;39.90;;;;;;5100599;28;20010;-65
2022/07/18 12:37:24;;;;;;;;;;;32.70;39.50;;;;;;5079587;28;19912;-65
2022/07/18 12:39:55;;;;;;;;;;;32.80;39.50;;;;;;5091846;28;20414;-65
2022/07/18 12:42:46;;;;;;;;;;;32.60;40.00;;;;;;5096393;28;19995;-65
2022/07/18 12:45:12;;;;;;;;;;;32.50;40.00;;;;;;5085467;28;19935;-64
2022/07/18 12:47:38;;;;;;;;;;;32.60;39.50;;;;;;5104381;28;19935;-64
2022/07/18 12:50:08;;;;;;;;;;;32.80;39.40;;;;;;5111362;28;20330;-65
2022/07/18 12:52:34;;;;;;;;;;;32.90;38.70;;;;;;5101989;28;19912;-63
2022/07/18 12:54:59;;;;;;;;;;;33.10;39.00;;;;;;5123265;28;19912;-64
2022/07/18 12:57:25;;;;;;;;;;;33.10;38.60;;;;;;5101420;28;20359;-65
2022/07/18 12:59:51;;;;;;;;;;;33.10;38.40;;;;;;5103677;28;19939;-64
2022/07/18 13:02:17;;;;;;;;;;;33.10;38.40;;;;;;5081855;28;19913;-65
2022/07/18 13:04:43;;;;;;;;;;;33.10;38.30;;;;;;5096967;28;19955;-64
2022/07/18 13:07:08;;;;;;;;;;;33.20;38.90;;;;;;5070823;28;19912;-65
2022/07/18 13:09:34;;;;;;;;;;;33.20;39.30;;;;;;5089312;28;19926;-66
2022/07/18 13:12:00;;;;;;;;;;;33.30;39.80;;;;;;5100241;28;19912;-65
2022/07/18 13:14:26;;;;;;;;;;;33.40;39.90;;;;;;5093318;28;20251;-65
2022/07/18 13:16:52;;;;;;;;;;;33.30;40.10;;;;;;5071836;28;20686;-65
2022/07/18 13:19:19;;;;;;;;;;;33.50;40.00;;;;;;5100409;28;19916;-66
2022/07/18 13:21:45;;;;;;;;;;;33.60;40.20;;;;;;5099090;28;19920;-64
2022/07/18 13:24:10;;;;;;;;;;;33.50;40.60;;;;;;5099850;28;20377;-65
2022/07/18 13:26:37;;;;;;;;;;;33.70;40.50;;;;;;5096544;28;20362;-66
2022/07/18 13:29:03;;;;;;;;;;;34.00;40.30;;;;;;5082104;28;19916;-64
2022/07/18 13:31:29;;;;;;;;;;;34.00;40.60;;;;;;5104520;28;20370;-65
2022/07/18 13:33:54;;;;;;;;;;;34.20;40.40;;;;;;5109871;28;20064;-66
2022/07/18 13:36:20;;;;;;;;;;;34.40;40.10;;;;;;5103918;28;19912;-65
2022/07/18 13:38:46;;;;;;;;;;;34.10;40.00;;;;;;5108136;28;19957;-65
2022/07/18 13:41:11;;;;;;;;;;;34.20;40.30;;;;;;5095480;28;19924;-64
2022/07/18 13:43:46;;;;;;;;;;;34.40;40.00;;;;;;5097146;28;19923;-65
2022/07/18 13:46:12;;;;;;;;;;;34.50;39.90;;;;;;5082011;28;19916;-65
2022/07/18 13:48:38;;;;;;;;;;;34.60;39.40;;;;;;5100976;28;19935;-66
2022/07/18 13:51:05;;;;;;;;;;;34.70;37.60;;;;;;5101913;28;19907;-65
2022/07/18 13:53:31;;;;;;;;;;;34.60;37.90;;;;;;5102808;28;20306;-65
2022/07/18 13:55:56;;;;;;;;;;;34.70;37.20;;;;;;5097513;28;20004;-64
2022/07/18 13:58:22;;;;;;;;;;;34.80;36.60;;;;;;5098341;28;19920;-65
2022/07/18 14:00:48;;;;;;;;;;;34.40;37.30;;;;;;5100730;28;20379;-64
2022/07/18 14:03:14;;;;;;;;;;;34.40;38.60;;;;;;5100921;28;19915;-66
2022/07/18 14:05:40;;;;;;;;;;;34.50;37.50;;;;;;5094351;28;19916;-65
2022/07/18 14:08:06;;;;;;;;;;;34.20;37.60;;;;;;5099875;28;19985;-64
2022/07/18 14:10:32;;;;;;;;;;;34.10;37.60;;;;;;5095407;28;19951;-64
2022/07/18 14:12:58;;;;;;;;;;;34.30;37.80;;;;;;5107788;28;20361;-64
2022/07/18 14:15:24;;;;;;;;;;;34.30;37.40;;;;;;5106525;28;19920;-65
2022/07/18 14:17:49;;;;;;;;;;;34.20;36.90;;;;;;5078617;28;20007;-65